createdAt,value
2022-12-06T00:00:30.404Z,-2.60
2022-12-06T00:03:17.194Z,-2.56
2022-12-06T00:06:04.296Z,-2.56
2022-12-06T00:08:51.068Z,-2.62
2022-12-06T00:11:42.243Z,-2.61
2022-12-06T00:14:28.994Z,-2.62
2022-12-06T00:17:15.781Z,-2.65
2022-12-06T00:20:02.757Z,-2.63
2022-12-06T00:22:49.767Z,-2.69
2022-12-06T00:25:36.572Z,-2.62
2022-12-06T00:28:23.331Z,-2.62
2022-12-06T00:31:10.069Z,-2.66
2022-12-06T00:33:57.425Z,-2.67
2022-12-06T00:36:46.984Z,-2.69
2022-12-06T00:39:36.697Z,-3.29
2022-12-06T00:42:23.509Z,-3.07
2022-12-06T00:45:10.263Z,-2.79
2022-12-06T00:47:57.028Z,-2.78
2022-12-06T00:50:43.799Z,-2.79
2022-12-06T00:53:30.555Z,-2.82
2022-12-06T00:56:17.309Z,-2.83
2022-12-06T00:59:04.493Z,-2.85
2022-12-06T01:01:52.605Z,-2.86
2022-12-06T01:04:39.438Z,-3.02
2022-12-06T01:07:26.193Z,-2.87
2022-12-06T01:10:12.996Z,-2.88
2022-12-06T01:12:59.778Z,-2.89
2022-12-06T01:15:46.522Z,-2.88
2022-12-06T01:18:33.327Z,-2.88
2022-12-06T01:21:28.666Z,-3.49
2022-12-06T01:24:15.494Z,-2.87
2022-12-06T01:27:02.262Z,-3.35
2022-12-06T01:29:49.112Z,-3.11
2022-12-06T01:32:35.893Z,-3.58
2022-12-06T01:35:22.678Z,-2.88
2022-12-06T01:38:09.434Z,-2.88
2022-12-06T01:41:02.061Z,-2.87
2022-12-06T01:43:49.656Z,-2.86
2022-12-06T01:46:56.874Z,-2.98
2022-12-06T01:49:49.805Z,-2.92
2022-12-06T01:52:38.082Z,-2.98
2022-12-06T01:55:27.971Z,-2.94
2022-12-06T01:58:20.159Z,-3.38
2022-12-06T02:01:06.930Z,-2.91
2022-12-06T02:03:54.186Z,-2.90
2022-12-06T02:06:41.351Z,-2.90
2022-12-06T02:09:30.193Z,-2.89
2022-12-06T02:12:17.012Z,-3.21
2022-12-06T02:15:09.074Z,-2.87
2022-12-06T02:18:01.887Z,-2.88
2022-12-06T02:21:07.069Z,-2.93
2022-12-06T02:24:20.974Z,-2.90
2022-12-06T02:27:10.219Z,-2.90
2022-12-06T02:30:09.102Z,-2.90
2022-12-06T02:33:05.807Z,-2.92
2022-12-06T02:36:10.173Z,-3.32
2022-12-06T02:39:07.374Z,-2.93
2022-12-06T02:41:58.818Z,-2.96
2022-12-06T02:44:52.289Z,-3.42
2022-12-06T02:47:43.681Z,-2.97
2022-12-06T02:50:38.769Z,-3.01
2022-12-06T02:53:29.442Z,-3.09
2022-12-06T02:56:17.174Z,-3.44
2022-12-06T02:59:04.702Z,-3.03
2022-12-06T03:01:54.659Z,-3.05
2022-12-06T03:04:59.461Z,-3.07
2022-12-06T03:07:58.552Z,-3.46
2022-12-06T03:11:00.910Z,-3.15
2022-12-06T03:13:57.029Z,-3.12
2022-12-06T03:16:47.993Z,-3.13
2022-12-06T03:19:47.477Z,-3.15
2022-12-06T03:22:49.802Z,-3.18
2022-12-06T03:25:37.155Z,-3.20
2022-12-06T03:28:26.869Z,-3.32
2022-12-06T03:31:20.604Z,-3.23
2022-12-06T03:34:13.466Z,-3.49
2022-12-06T03:37:03.117Z,-3.40
2022-12-06T03:39:59.611Z,-3.28
2022-12-06T03:42:47.385Z,-3.31
2022-12-06T03:45:34.727Z,-3.41
2022-12-06T03:49:00.701Z,-3.36
2022-12-06T03:51:53.499Z,-3.37
2022-12-06T03:54:40.336Z,-3.39
2022-12-06T03:57:27.227Z,-3.87
2022-12-06T04:00:13.995Z,-3.50
2022-12-06T04:03:00.732Z,-3.42
2022-12-06T04:05:47.493Z,-3.43
2022-12-06T04:08:34.245Z,-3.82
2022-12-06T04:11:21.048Z,-3.83
2022-12-06T04:14:07.799Z,-3.98
2022-12-06T04:16:54.167Z,-3.45
2022-12-06T04:19:40.940Z,-3.50
2022-12-06T04:22:26.425Z,-3.46
2022-12-06T04:25:13.388Z,-3.47
2022-12-06T04:27:58.498Z,-3.48
2022-12-06T04:30:44.288Z,-3.50
2022-12-06T04:33:29.453Z,-3.51
2022-12-06T04:36:15.498Z,-3.51
2022-12-06T04:39:02.446Z,-4.09
2022-12-06T04:41:48.345Z,-4.07
2022-12-06T04:44:35.282Z,-3.55
2022-12-06T04:47:23.130Z,-3.55
2022-12-06T04:50:10.201Z,-3.56
2022-12-06T04:52:56.950Z,-3.57
2022-12-06T04:55:43.700Z,-3.57
2022-12-06T04:58:30.424Z,-3.98
2022-12-06T05:01:17.236Z,-3.59
2022-12-06T05:04:04.101Z,-3.68
2022-12-06T05:06:50.930Z,-3.62
2022-12-06T05:09:37.694Z,-3.62
2022-12-06T05:12:24.661Z,-3.62
2022-12-06T05:15:14.598Z,-3.70
2022-12-06T05:18:02.687Z,-3.65
2022-12-06T05:20:49.413Z,-3.65
2022-12-06T05:23:36.912Z,-4.32
2022-12-06T05:26:27.730Z,-4.04
2022-12-06T05:29:14.983Z,-3.74
2022-12-06T05:32:01.809Z,-3.69
2022-12-06T05:34:48.704Z,-3.80
2022-12-06T05:37:35.528Z,-3.71
2022-12-06T05:40:22.320Z,-4.01
2022-12-06T05:43:09.189Z,-3.72
2022-12-06T05:45:57.187Z,-3.72
2022-12-06T05:48:44.275Z,-3.83
2022-12-06T05:51:31.131Z,-3.75
2022-12-06T05:54:17.891Z,-3.76
2022-12-06T05:57:04.749Z,-3.75
2022-12-06T05:59:51.725Z,-3.76
2022-12-06T06:02:38.541Z,-3.78
2022-12-06T06:05:25.727Z,-3.78
2022-12-06T06:08:12.641Z,-4.03
2022-12-06T06:10:59.452Z,-4.14
2022-12-06T06:13:46.650Z,-3.80
2022-12-06T06:16:33.399Z,-3.79
2022-12-06T06:19:20.346Z,-3.77
2022-12-06T06:22:07.118Z,-3.77
2022-12-06T06:24:58.705Z,-3.76
2022-12-06T06:27:45.776Z,-3.76
2022-12-06T06:30:33.023Z,-3.75
2022-12-06T06:33:19.864Z,-4.01
2022-12-06T06:36:06.697Z,-4.05
2022-12-06T06:38:53.575Z,-3.73
2022-12-06T06:41:40.408Z,-3.73
2022-12-06T06:44:27.269Z,-3.73
2022-12-06T06:47:14.074Z,-3.78
2022-12-06T06:50:01.224Z,-3.66
2022-12-06T06:52:48.276Z,-3.65
2022-12-06T06:55:35.136Z,-3.79
2022-12-06T06:58:22.465Z,-4.46
2022-12-06T07:01:17.363Z,-3.60
2022-12-06T07:04:04.256Z,-3.61
2022-12-06T07:06:51.217Z,-3.55
2022-12-06T07:09:18.211Z,-3.55
2022-12-06T07:11:45.416Z,-3.63
2022-12-06T07:14:32.274Z,-3.50
2022-12-06T07:17:19.221Z,-3.62
2022-12-06T07:20:06.060Z,-3.46
2022-12-06T07:22:52.916Z,-3.37
2022-12-06T07:25:39.749Z,-3.22
2022-12-06T07:28:26.988Z,-3.15
2022-12-06T07:31:13.858Z,-3.09
2022-12-06T07:34:01.448Z,-3.01
2022-12-06T07:36:52.384Z,-2.89
2022-12-06T07:39:39.237Z,-2.80
2022-12-06T07:42:24.935Z,-2.73
2022-12-06T07:45:22.316Z,-2.67
2022-12-06T07:48:09.143Z,-2.81
2022-12-06T07:50:55.956Z,-2.56
2022-12-06T07:53:42.797Z,-2.54
2022-12-06T07:56:29.707Z,-2.48
2022-12-06T07:59:16.505Z,-2.37
2022-12-06T08:02:04.021Z,-2.31
2022-12-06T08:04:51.254Z,-2.26
2022-12-06T08:07:38.270Z,-2.20
2022-12-06T08:10:25.941Z,-2.17
2022-12-06T08:13:13.412Z,-2.14
2022-12-06T08:16:00.345Z,-2.10
2022-12-06T08:18:47.182Z,-2.09
2022-12-06T08:21:33.997Z,-2.29
2022-12-06T08:24:20.853Z,-2.00
2022-12-06T08:27:08.154Z,-1.96
2022-12-06T08:29:55.098Z,-1.95
2022-12-06T08:32:42.148Z,-1.96
2022-12-06T08:35:29.084Z,-1.89
2022-12-06T08:38:15.998Z,-1.86
2022-12-06T08:41:03.255Z,-1.82
2022-12-06T08:43:51.662Z,-1.99
2022-12-06T08:46:38.549Z,-1.85
2022-12-06T08:49:25.922Z,-1.73
2022-12-06T08:52:13.374Z,-1.67
2022-12-06T08:55:00.277Z,-1.61
2022-12-06T08:57:47.100Z,-1.56
2022-12-06T09:00:34.666Z,-1.53
2022-12-06T09:03:21.929Z,-1.50
2022-12-06T09:06:08.743Z,-1.48
2022-12-06T09:08:56.529Z,-1.45
2022-12-06T09:11:43.351Z,-1.42
2022-12-06T09:14:35.055Z,-1.43
2022-12-06T09:17:21.874Z,-1.42
2022-12-06T09:20:08.919Z,-1.37
2022-12-06T09:22:55.957Z,-1.34
2022-12-06T09:25:42.795Z,-1.31
2022-12-06T09:28:30.969Z,-1.30
2022-12-06T09:31:18.178Z,-1.27
2022-12-06T09:34:05.539Z,-1.25
2022-12-06T09:36:52.455Z,-1.21
2022-12-06T09:39:45.591Z,-1.18
2022-12-06T09:42:44.551Z,-1.14
2022-12-06T09:45:55.309Z,-1.12
2022-12-06T09:49:04.194Z,-1.07
2022-12-06T09:52:13.923Z,-1.04
2022-12-06T09:55:23.449Z,-0.99
2022-12-06T09:58:52.172Z,-0.95
2022-12-06T10:01:53.956Z,-0.93
2022-12-06T10:04:46.465Z,-0.91
2022-12-06T10:07:44.323Z,-0.89
2022-12-06T10:10:34.012Z,-0.86
2022-12-06T10:13:46.923Z,-0.87
2022-12-06T10:17:01.792Z,-0.81
2022-12-06T10:20:08.740Z,-1.12
2022-12-06T10:22:55.528Z,-0.75
2022-12-06T10:25:46.844Z,-0.74
2022-12-06T10:28:40.280Z,-0.71
2022-12-06T10:31:43.139Z,-0.69
2022-12-06T10:34:45.813Z,-0.69
2022-12-06T10:38:08.249Z,-1.08
2022-12-06T10:41:11.465Z,-0.82
2022-12-06T10:44:03.472Z,-0.63
2022-12-06T10:47:00.853Z,-0.61
2022-12-06T10:49:47.698Z,-0.59
2022-12-06T10:53:01.689Z,-0.99
2022-12-06T10:55:59.652Z,-0.93
2022-12-06T10:59:06.709Z,-0.53
2022-12-06T11:01:59.484Z,-0.51
2022-12-06T11:04:52.210Z,-0.49
2022-12-06T11:07:45.614Z,-0.80
2022-12-06T11:10:43.201Z,-0.46
2022-12-06T11:13:38.138Z,-0.44
2022-12-06T11:16:38.479Z,-0.42
2022-12-06T11:19:56.421Z,-0.39
2022-12-06T11:22:46.044Z,-0.37
2022-12-06T11:25:41.640Z,-0.35
2022-12-06T11:28:31.441Z,-0.34
2022-12-06T11:31:18.567Z,-0.36
2022-12-06T11:34:05.740Z,-0.29
2022-12-06T11:36:59.610Z,-0.29
2022-12-06T11:39:48.729Z,-0.42
2022-12-06T11:42:40.871Z,-0.28
2022-12-06T11:45:38.694Z,-0.25
2022-12-06T11:48:36.793Z,-0.47
2022-12-06T11:51:23.834Z,-0.33
2022-12-06T11:54:20.869Z,-0.20
2022-12-06T11:57:08.058Z,-0.18
2022-12-06T11:59:54.912Z,-0.24
2022-12-06T12:02:51.821Z,-0.19
2022-12-06T12:05:42.293Z,-0.16
2022-12-06T12:08:39.936Z,-0.73
2022-12-06T12:11:26.852Z,-0.16
2022-12-06T12:14:20.416Z,-0.17
2022-12-06T12:17:10.334Z,-0.17
2022-12-06T12:20:06.296Z,-0.13
2022-12-06T12:23:00.456Z,-0.13
2022-12-06T12:25:55.297Z,-0.12
2022-12-06T12:28:46.299Z,-0.28
2022-12-06T12:31:44.162Z,-0.11
2022-12-06T12:34:42.913Z,-0.10
2022-12-06T12:37:40.859Z,-0.40
2022-12-06T12:40:43.391Z,-0.42
2022-12-06T12:43:32.920Z,-0.09
2022-12-06T12:46:25.502Z,-0.09
2022-12-06T12:49:12.428Z,-0.16
2022-12-06T12:51:59.720Z,-0.17
2022-12-06T12:54:53.452Z,-0.50
2022-12-06T12:57:40.269Z,-0.11
2022-12-06T14:32:23.682Z,-0.63
2022-12-06T14:35:10.467Z,-0.70
2022-12-06T14:37:57.875Z,-0.56
2022-12-06T14:40:58.668Z,-0.56
2022-12-06T14:43:48.554Z,-0.56
2022-12-06T14:46:37.455Z,-0.59
2022-12-06T14:49:23.048Z,-0.59
2022-12-06T14:52:10.876Z,-0.56
2022-12-06T14:55:04.716Z,-0.57
2022-12-06T14:57:52.736Z,-0.61
2022-12-06T15:00:42.347Z,-0.59
2022-12-06T15:03:29.405Z,-0.58
2022-12-06T15:06:37.005Z,-0.59
2022-12-06T15:09:32.935Z,-0.67
2022-12-06T15:12:40.872Z,-0.62
2022-12-06T15:15:58.966Z,-0.62
2022-12-06T15:18:51.968Z,-0.60
2022-12-06T15:21:38.804Z,-0.60
2022-12-06T15:24:36.347Z,-0.60
2022-12-06T15:27:23.223Z,-0.66
2022-12-06T15:30:10.440Z,-0.61
2022-12-06T15:32:57.385Z,-0.68
2022-12-06T15:35:44.259Z,-0.67
2022-12-06T15:38:31.587Z,-0.64
2022-12-06T15:41:18.539Z,-0.64
2022-12-06T15:44:05.562Z,-0.64
2022-12-06T15:46:55.268Z,-0.67
2022-12-06T15:49:48.421Z,-0.70
2022-12-06T15:52:38.277Z,-1.23
2022-12-06T15:55:25.600Z,-0.82
2022-12-06T15:58:12.425Z,-0.82
2022-12-06T16:00:59.264Z,-0.98
2022-12-06T16:03:46.107Z,-0.84
2022-12-06T16:06:34.839Z,-1.00
2022-12-06T16:09:21.622Z,-0.92
2022-12-06T16:12:08.589Z,-1.35
2022-12-06T16:14:55.344Z,-0.97
2022-12-06T16:17:22.144Z,-0.97
2022-12-06T16:20:07.531Z,-0.98
2022-12-06T16:22:52.659Z,-1.02
2022-12-06T16:25:39.531Z,-1.05
2022-12-06T16:28:26.315Z,-1.10
2022-12-06T16:31:13.499Z,-1.55
2022-12-06T16:34:00.364Z,-1.17
2022-12-06T16:36:49.301Z,-1.20
2022-12-06T16:39:36.058Z,-1.26
2022-12-06T16:42:26.006Z,-1.26
2022-12-06T16:45:12.767Z,-1.31
2022-12-06T16:47:59.755Z,-1.60
2022-12-06T16:50:46.999Z,-1.37
2022-12-06T16:53:37.671Z,-1.38
2022-12-06T16:56:24.789Z,-1.76
2022-12-06T16:59:11.550Z,-1.46
2022-12-06T17:02:13.416Z,-1.49
2022-12-06T17:05:00.549Z,-1.83
2022-12-06T17:07:48.231Z,-1.80
2022-12-06T17:10:35.227Z,-1.53
2022-12-06T17:13:22.040Z,-1.56
2022-12-06T17:16:08.825Z,-1.60
2022-12-06T17:18:55.615Z,-1.63
2022-12-06T17:21:42.481Z,-1.66
2022-12-06T17:24:29.710Z,-1.73
2022-12-06T17:27:16.483Z,-2.28
2022-12-06T17:30:03.847Z,-2.39
2022-12-06T17:32:50.634Z,-1.84
2022-12-06T17:35:37.500Z,-1.77
2022-12-06T17:38:24.278Z,-1.78
2022-12-06T17:41:11.026Z,-1.80
2022-12-06T17:43:57.774Z,-1.80
2022-12-06T17:46:44.510Z,-1.88
2022-12-06T17:49:37.299Z,-1.85
2022-12-06T17:52:25.321Z,-1.83
2022-12-06T17:55:12.103Z,-1.86
2022-12-06T17:57:58.882Z,-1.87
2022-12-06T18:00:45.802Z,-1.90
2022-12-06T18:03:35.122Z,-1.95
2022-12-06T18:06:21.886Z,-2.02
2022-12-06T18:09:09.185Z,-2.03
2022-12-06T18:11:56.718Z,-2.03
2022-12-06T18:14:43.636Z,-2.04
2022-12-06T18:17:31.050Z,-2.05
2022-12-06T18:20:17.826Z,-2.07
2022-12-06T18:23:04.561Z,-2.09
2022-12-06T18:25:51.419Z,-2.11
2022-12-06T18:28:38.168Z,-2.18
2022-12-06T18:31:25.232Z,-2.34
2022-12-06T18:34:12.770Z,-2.27
2022-12-06T18:36:59.726Z,-2.33
2022-12-06T18:39:46.564Z,-2.44
2022-12-06T18:42:33.359Z,-2.53
2022-12-06T18:45:20.113Z,-2.63
2022-12-06T18:48:06.858Z,-2.50
2022-12-06T18:50:53.653Z,-2.50
2022-12-06T18:53:40.679Z,-2.52
2022-12-06T18:56:29.769Z,-2.53
2022-12-06T18:59:27.304Z,-2.55
2022-12-06T19:01:54.600Z,-2.63
2022-12-06T19:04:41.425Z,-2.60
2022-12-06T19:07:28.321Z,-2.60
2022-12-06T19:10:15.089Z,-2.71
2022-12-06T19:13:05.860Z,-2.85
2022-12-06T19:15:52.896Z,-2.74
2022-12-06T19:18:39.681Z,-2.64
2022-12-06T19:21:26.514Z,-2.65
2022-12-06T19:24:14.983Z,-2.65
2022-12-06T19:27:01.814Z,-2.65
2022-12-06T19:29:49.578Z,-2.67
2022-12-06T19:32:36.338Z,-2.67
2022-12-06T19:35:23.225Z,-2.68
2022-12-06T19:38:10.054Z,-2.71
2022-12-06T19:41:01.068Z,-2.70
2022-12-06T19:43:46.198Z,-2.73
2022-12-06T19:46:36.056Z,-2.76
2022-12-06T19:49:25.531Z,-2.81
2022-12-06T19:52:12.570Z,-2.84
2022-12-06T19:54:59.446Z,-2.90
2022-12-06T19:57:46.237Z,-2.89
2022-12-06T20:00:33.718Z,-2.90
2022-12-06T20:03:20.486Z,-2.91
2022-12-06T20:06:07.245Z,-2.93
2022-12-06T20:08:55.020Z,-2.96
2022-12-06T20:11:42.594Z,-2.97
2022-12-06T20:14:32.108Z,-2.99
2022-12-06T20:17:18.883Z,-3.00
2022-12-06T20:20:06.343Z,-3.09
2022-12-06T20:22:53.163Z,-3.02
2022-12-06T20:25:39.922Z,-3.02
2022-12-06T20:28:26.689Z,-3.12
2022-12-06T20:31:13.615Z,-3.25
2022-12-06T20:34:00.706Z,-3.14
2022-12-06T20:36:48.780Z,-3.09
2022-12-06T20:39:44.803Z,-3.12
2022-12-06T20:42:31.578Z,-3.15
2022-12-06T20:45:18.405Z,-4.01
2022-12-06T20:48:11.481Z,-3.18
2022-12-06T20:51:01.069Z,-3.36
2022-12-06T20:53:47.939Z,-3.35
2022-12-06T20:56:37.875Z,-3.25
2022-12-06T20:59:26.454Z,-3.27
2022-12-06T21:02:13.245Z,-3.30
2022-12-06T21:05:00.518Z,-3.31
2022-12-06T21:07:47.324Z,-3.34
2022-12-06T21:10:34.265Z,-3.41
2022-12-06T21:13:21.036Z,-3.62
2022-12-06T21:16:07.914Z,-3.43
2022-12-06T21:18:55.912Z,-3.44
2022-12-06T21:21:46.263Z,-3.43
2022-12-06T21:24:37.670Z,-3.43
2022-12-06T21:27:24.486Z,-3.44
2022-12-06T21:30:11.277Z,-3.49
2022-12-06T21:32:58.042Z,-3.46
2022-12-06T21:35:44.894Z,-3.48
2022-12-06T21:38:32.298Z,-3.58
2022-12-06T21:41:32.344Z,-3.60
2022-12-06T21:44:22.473Z,-3.59
2022-12-06T21:47:13.329Z,-3.58
2022-12-06T21:50:00.346Z,-3.62
2022-12-06T21:52:47.401Z,-3.65
2022-12-06T21:55:34.201Z,-3.84
2022-12-06T21:58:20.986Z,-3.70
2022-12-06T22:01:07.863Z,-3.72
2022-12-06T22:03:55.630Z,-3.94
2022-12-06T22:06:42.969Z,-3.82
2022-12-06T22:09:30.027Z,-3.83
2022-12-06T22:12:16.953Z,-4.03
2022-12-06T22:15:03.772Z,-3.85
2022-12-06T22:17:50.581Z,-3.88
2022-12-06T22:20:37.437Z,-3.91
2022-12-06T22:23:24.219Z,-4.17
2022-12-06T22:26:11.005Z,-4.00
2022-12-06T22:28:57.767Z,-3.99
2022-12-06T22:31:47.611Z,-4.01
2022-12-06T22:34:34.399Z,-4.03
2022-12-06T22:37:26.803Z,-4.10
2022-12-06T22:40:15.208Z,-4.09
2022-12-06T22:43:02.100Z,-4.13
2022-12-06T22:45:48.851Z,-4.15
2022-12-06T22:48:35.679Z,-4.17
2022-12-06T22:51:57.599Z,-4.18
2022-12-06T22:54:44.334Z,-4.20
2022-12-06T22:57:31.053Z,-4.22
2022-12-06T23:00:17.932Z,-4.26
2022-12-06T23:03:04.701Z,-4.30
2022-12-06T23:05:51.458Z,-4.35
2022-12-06T23:08:38.240Z,-4.30
2022-12-06T23:11:29.138Z,-4.31
2022-12-06T23:14:16.971Z,-4.33
2022-12-06T23:17:03.776Z,-4.35
2022-12-06T23:19:50.529Z,-4.95
2022-12-06T23:22:37.312Z,-4.38
2022-12-06T23:25:24.400Z,-4.41
2022-12-06T23:28:11.144Z,-4.44
2022-12-06T23:30:57.906Z,-4.46
2022-12-06T23:33:44.666Z,-4.64
2022-12-06T23:36:52.724Z,-4.60
2022-12-06T23:39:39.869Z,-4.57
2022-12-06T23:42:26.596Z,-4.57
2022-12-06T23:45:13.337Z,-4.60
2022-12-06T23:48:00.071Z,-4.92
2022-12-06T23:50:46.810Z,-4.68
2022-12-06T23:53:33.565Z,-4.65
2022-12-06T23:56:22.128Z,-4.68
2022-12-06T23:59:10.328Z,-4.84
